sensor_id;sensor_type;location;lat;lon;timestamp;P1;durP1;ratioP1;P2;durP2;ratioP2
6723;SDS011;3399;52.530;13.304;2023-05-10T00:01:52;7.40;;;4.70;;
6723;SDS011;3399;52.530;13.304;2023-05-10T00:04:17;5.90;;;4.90;;
6723;SDS011;3399;52.530;13.304;2023-05-10T00:06:43;5.93;;;4.40;;
6723;SDS011;3399;52.530;13.304;2023-05-10T00:09:08;5.13;;;3.93;;
6723;SDS011;3399;52.530;13.304;2023-05-10T00:11:34;5.80;;;4.33;;
6723;SDS011;3399;52.530;13.304;2023-05-10T00:13:59;5.30;;;4.27;;
6723;SDS011;3399;52.530;13.304;2023-05-10T00:16:25;6.47;;;4.97;;
6723;SDS011;3399;52.530;13.304;2023-05-10T00:18:50;5.10;;;4.43;;
6723;SDS011;3399;52.530;13.304;2023-05-10T00:21:19;5.53;;;4.50;;
6723;SDS011;3399;52.530;13.304;2023-05-10T00:23:44;5.67;;;4.90;;
6723;SDS011;3399;52.530;13.304;2023-05-10T00:26:10;5.37;;;4.87;;
6723;SDS011;3399;52.530;13.304;2023-05-10T00:28:35;5.73;;;4.63;;
6723;SDS011;3399;52.530;13.304;2023-05-10T00:31:01;7.10;;;5.30;;
6723;SDS011;3399;52.530;13.304;2023-05-10T00:33:27;4.70;;;4.30;;
6723;SDS011;3399;52.530;13.304;2023-05-10T00:35:55;5.97;;;4.23;;
6723;SDS011;3399;52.530;13.304;2023-05-10T00:38:21;5.40;;;4.40;;
6723;SDS011;3399;52.530;13.304;2023-05-10T00:40:46;5.77;;;4.63;;
6723;SDS011;3399;52.530;13.304;2023-05-10T00:43:12;5.47;;;4.77;;
6723;SDS011;3399;52.530;13.304;2023-05-10T00:45:37;5.70;;;4.30;;
6723;SDS011;3399;52.530;13.304;2023-05-10T00:48:06;4.50;;;4.10;;
6723;SDS011;3399;52.530;13.304;2023-05-10T00:50:32;6.30;;;4.80;;
6723;SDS011;3399;52.530;13.304;2023-05-10T00:53:01;5.83;;;5.23;;
6723;SDS011;3399;52.530;13.304;2023-05-10T00:55:27;7.43;;;5.30;;
6723;SDS011;3399;52.530;13.304;2023-05-10T00:57:53;7.57;;;5.47;;
6723;SDS011;3399;52.530;13.304;2023-05-10T01:00:19;5.87;;;5.20;;
6723;SDS011;3399;52.530;13.304;2023-05-10T01:02:45;6.40;;;4.87;;
6723;SDS011;3399;52.530;13.304;2023-05-10T01:05:11;5.17;;;4.67;;
6723;SDS011;3399;52.530;13.304;2023-05-10T01:07:37;7.23;;;5.80;;
6723;SDS011;3399;52.530;13.304;2023-05-10T01:10:04;6.00;;;5.10;;
6723;SDS011;3399;52.530;13.304;2023-05-10T01:12:31;6.03;;;5.53;;
6723;SDS011;3399;52.530;13.304;2023-05-10T01:15:00;6.73;;;5.93;;
6723;SDS011;3399;52.530;13.304;2023-05-10T01:17:26;6.33;;;5.53;;
6723;SDS011;3399;52.530;13.304;2023-05-10T01:19:52;9.67;;;5.70;;
6723;SDS011;3399;52.530;13.304;2023-05-10T01:31:08;7.07;;;6.37;;
6723;SDS011;3399;52.530;13.304;2023-05-10T01:33:48;7.03;;;5.50;;
6723;SDS011;3399;52.530;13.304;2023-05-10T01:39:15;5.80;;;4.83;;
6723;SDS011;3399;52.530;13.304;2023-05-10T01:42:00;8.13;;;5.40;;
6723;SDS011;3399;52.530;13.304;2023-05-10T01:44:37;8.83;;;5.43;;
6723;SDS011;3399;52.530;13.304;2023-05-10T01:47:31;6.03;;;5.47;;
6723;SDS011;3399;52.530;13.304;2023-05-10T01:50:04;5.50;;;5.00;;
6723;SDS011;3399;52.530;13.304;2023-05-10T01:52:39;5.30;;;4.90;;
6723;SDS011;3399;52.530;13.304;2023-05-10T01:55:09;8.03;;;5.63;;
6723;SDS011;3399;52.530;13.304;2023-05-10T01:57:39;6.37;;;5.30;;
6723;SDS011;3399;52.530;13.304;2023-05-10T02:00:07;7.27;;;5.60;;
6723;SDS011;3399;52.530;13.304;2023-05-10T02:02:38;6.10;;;5.30;;
6723;SDS011;3399;52.530;13.304;2023-05-10T02:05:07;8.10;;;5.47;;
6723;SDS011;3399;52.530;13.304;2023-05-10T02:07:34;4.77;;;4.37;;
6723;SDS011;3399;52.530;13.304;2023-05-10T02:10:01;8.83;;;5.90;;
6723;SDS011;3399;52.530;13.304;2023-05-10T02:12:29;6.00;;;4.83;;
6723;SDS011;3399;52.530;13.304;2023-05-10T02:14:56;6.30;;;5.70;;
6723;SDS011;3399;52.530;13.304;2023-05-10T02:17:24;5.37;;;4.87;;
6723;SDS011;3399;52.530;13.304;2023-05-10T02:19:50;8.90;;;5.80;;
6723;SDS011;3399;52.530;13.304;2023-05-10T02:22:17;5.37;;;4.83;;
6723;SDS011;3399;52.530;13.304;2023-05-10T02:24:44;6.53;;;4.90;;
6723;SDS011;3399;52.530;13.304;2023-05-10T02:27:11;6.07;;;4.80;;
6723;SDS011;3399;52.530;13.304;2023-05-10T02:29:38;5.83;;;5.27;;
6723;SDS011;3399;52.530;13.304;2023-05-10T02:32:04;5.73;;;5.23;;
6723;SDS011;3399;52.530;13.304;2023-05-10T02:34:31;5.17;;;4.77;;
6723;SDS011;3399;52.530;13.304;2023-05-10T02:36:57;7.87;;;5.27;;
6723;SDS011;3399;52.530;13.304;2023-05-10T02:39:24;5.97;;;5.30;;
6723;SDS011;3399;52.530;13.304;2023-05-10T02:41:51;6.30;;;4.70;;
6723;SDS011;3399;52.530;13.304;2023-05-10T02:44:18;5.10;;;4.60;;
6723;SDS011;3399;52.530;13.304;2023-05-10T02:46:45;6.67;;;5.37;;
6723;SDS011;3399;52.530;13.304;2023-05-10T02:49:11;5.43;;;4.40;;
6723;SDS011;3399;52.530;13.304;2023-05-10T02:51:39;4.73;;;4.33;;
6723;SDS011;3399;52.530;13.304;2023-05-10T02:54:15;7.50;;;5.20;;
6723;SDS011;3399;52.530;13.304;2023-05-10T02:56:49;5.50;;;4.97;;
6723;SDS011;3399;52.530;13.304;2023-05-10T02:59:18;6.33;;;5.70;;
6723;SDS011;3399;52.530;13.304;2023-05-10T03:01:44;9.33;;;5.17;;
6723;SDS011;3399;52.530;13.304;2023-05-10T03:04:10;6.00;;;4.90;;
6723;SDS011;3399;52.530;13.304;2023-05-10T03:06:35;5.40;;;4.90;;
6723;SDS011;3399;52.530;13.304;2023-05-10T03:09:01;6.03;;;5.10;;
6723;SDS011;3399;52.530;13.304;2023-05-10T03:11:32;5.53;;;4.30;;
6723;SDS011;3399;52.530;13.304;2023-05-10T03:17:06;5.10;;;4.63;;
6723;SDS011;3399;52.530;13.304;2023-05-10T03:19:47;5.67;;;4.43;;
6723;SDS011;3399;52.530;13.304;2023-05-10T03:22:32;5.97;;;4.73;;
6723;SDS011;3399;52.530;13.304;2023-05-10T03:25:10;7.97;;;4.97;;
6723;SDS011;3399;52.530;13.304;2023-05-10T03:27:38;5.97;;;4.77;;
6723;SDS011;3399;52.530;13.304;2023-05-10T03:30:05;5.87;;;4.17;;
6723;SDS011;3399;52.530;13.304;2023-05-10T03:32:33;5.70;;;4.10;;
6723;SDS011;3399;52.530;13.304;2023-05-10T03:34:59;7.97;;;4.90;;
6723;SDS011;3399;52.530;13.304;2023-05-10T03:37:25;4.90;;;4.50;;
6723;SDS011;3399;52.530;13.304;2023-05-10T03:39:50;7.57;;;4.73;;
6723;SDS011;3399;52.530;13.304;2023-05-10T03:42:16;5.53;;;4.80;;
6723;SDS011;3399;52.530;13.304;2023-05-10T03:44:42;7.00;;;4.60;;
6723;SDS011;3399;52.530;13.304;2023-05-10T03:47:08;6.10;;;4.60;;
6723;SDS011;3399;52.530;13.304;2023-05-10T03:49:33;6.73;;;4.83;;
6723;SDS011;3399;52.530;13.304;2023-05-10T03:51:59;5.67;;;4.63;;
6723;SDS011;3399;52.530;13.304;2023-05-10T03:54:24;7.37;;;4.60;;
6723;SDS011;3399;52.530;13.304;2023-05-10T03:56:50;5.20;;;4.60;;
6723;SDS011;3399;52.530;13.304;2023-05-10T03:59:16;5.63;;;5.13;;
6723;SDS011;3399;52.530;13.304;2023-05-10T04:01:41;5.37;;;4.23;;
6723;SDS011;3399;52.530;13.304;2023-05-10T04:04:07;6.37;;;4.57;;
6723;SDS011;3399;52.530;13.304;2023-05-10T04:06:32;5.87;;;4.47;;
6723;SDS011;3399;52.530;13.304;2023-05-10T04:08:57;5.47;;;4.33;;
6723;SDS011;3399;52.530;13.304;2023-05-10T04:11:25;6.33;;;4.33;;
6723;SDS011;3399;52.530;13.304;2023-05-10T04:13:51;4.33;;;3.93;;
6723;SDS011;3399;52.530;13.304;2023-05-10T04:16:16;4.03;;;3.63;;
6723;SDS011;3399;52.530;13.304;2023-05-10T04:18:42;4.73;;;4.07;;
6723;SDS011;3399;52.530;13.304;2023-05-10T04:21:11;6.93;;;3.77;;
6723;SDS011;3399;52.530;13.304;2023-05-10T04:23:38;4.37;;;3.97;;
6723;SDS011;3399;52.530;13.304;2023-05-10T04:26:03;4.90;;;4.27;;
6723;SDS011;3399;52.530;13.304;2023-05-10T04:28:29;5.80;;;4.53;;
6723;SDS011;3399;52.530;13.304;2023-05-10T04:31:01;4.47;;;4.07;;
6723;SDS011;3399;52.530;13.304;2023-05-10T04:33:28;5.57;;;4.03;;
6723;SDS011;3399;52.530;13.304;2023-05-10T04:35:53;4.53;;;3.83;;
6723;SDS011;3399;52.530;13.304;2023-05-10T04:38:19;4.53;;;3.97;;
6723;SDS011;3399;52.530;13.304;2023-05-10T04:40:47;4.90;;;4.20;;
6723;SDS011;3399;52.530;13.304;2023-05-10T04:43:13;4.57;;;3.80;;
6723;SDS011;3399;52.530;13.304;2023-05-10T04:45:39;6.27;;;3.77;;
6723;SDS011;3399;52.530;13.304;2023-05-10T04:48:04;5.10;;;4.27;;
6723;SDS011;3399;52.530;13.304;2023-05-10T04:50:30;4.70;;;4.07;;
6723;SDS011;3399;52.530;13.304;2023-05-10T04:52:56;5.53;;;3.50;;
6723;SDS011;3399;52.530;13.304;2023-05-10T04:55:22;5.83;;;4.63;;
6723;SDS011;3399;52.530;13.304;2023-05-10T04:57:47;4.77;;;4.23;;
6723;SDS011;3399;52.530;13.304;2023-05-10T05:00:13;5.10;;;4.60;;
6723;SDS011;3399;52.530;13.304;2023-05-10T05:02:42;7.00;;;4.00;;
6723;SDS011;3399;52.530;13.304;2023-05-10T05:05:08;3.50;;;3.20;;
6723;SDS011;3399;52.530;13.304;2023-05-10T05:07:34;5.33;;;4.33;;
6723;SDS011;3399;52.530;13.304;2023-05-10T05:10:00;4.67;;;3.60;;
6723;SDS011;3399;52.530;13.304;2023-05-10T05:12:25;5.73;;;4.53;;
6723;SDS011;3399;52.530;13.304;2023-05-10T05:14:51;4.37;;;3.87;;
6723;SDS011;3399;52.530;13.304;2023-05-10T05:17:16;4.43;;;3.73;;
6723;SDS011;3399;52.530;13.304;2023-05-10T05:19:41;4.37;;;3.60;;
6723;SDS011;3399;52.530;13.304;2023-05-10T05:22:07;5.87;;;4.13;;
6723;SDS011;3399;52.530;13.304;2023-05-10T05:24:36;3.47;;;3.13;;
6723;SDS011;3399;52.530;13.304;2023-05-10T05:27:03;4.37;;;3.43;;
6723;SDS011;3399;52.530;13.304;2023-05-10T05:29:28;4.23;;;3.83;;
6723;SDS011;3399;52.530;13.304;2023-05-10T05:31:54;3.83;;;3.53;;
6723;SDS011;3399;52.530;13.304;2023-05-10T05:34:20;3.93;;;3.53;;
6723;SDS011;3399;52.530;13.304;2023-05-10T05:36:46;6.20;;;3.50;;
6723;SDS011;3399;52.530;13.304;2023-05-10T05:39:12;4.17;;;3.77;;
6723;SDS011;3399;52.530;13.304;2023-05-10T05:41:37;4.07;;;3.67;;
6723;SDS011;3399;52.530;13.304;2023-05-10T05:44:03;4.00;;;3.70;;
6723;SDS011;3399;52.530;13.304;2023-05-10T05:46:28;8.87;;;3.80;;
6723;SDS011;3399;52.530;13.304;2023-05-10T05:48:54;3.47;;;3.07;;
6723;SDS011;3399;52.530;13.304;2023-05-10T05:51:19;6.67;;;3.87;;
6723;SDS011;3399;52.530;13.304;2023-05-10T05:53:45;3.83;;;3.27;;
6723;SDS011;3399;52.530;13.304;2023-05-10T05:56:10;4.57;;;3.27;;
6723;SDS011;3399;52.530;13.304;2023-05-10T05:58:36;6.70;;;3.90;;
6723;SDS011;3399;52.530;13.304;2023-05-10T06:01:01;4.40;;;3.30;;
6723;SDS011;3399;52.530;13.304;2023-05-10T06:03:27;6.37;;;3.40;;
6723;SDS011;3399;52.530;13.304;2023-05-10T06:05:52;4.70;;;3.57;;
6723;SDS011;3399;52.530;13.304;2023-05-10T06:08:18;7.17;;;2.77;;
6723;SDS011;3399;52.530;13.304;2023-05-10T06:10:43;5.07;;;2.93;;
6723;SDS011;3399;52.530;13.304;2023-05-10T06:13:10;5.17;;;3.40;;
6723;SDS011;3399;52.530;13.304;2023-05-10T06:15:35;3.10;;;2.90;;
6723;SDS011;3399;52.530;13.304;2023-05-10T06:18:01;3.80;;;3.37;;
6723;SDS011;3399;52.530;13.304;2023-05-10T06:20:26;6.53;;;3.33;;
6723;SDS011;3399;52.530;13.304;2023-05-10T06:22:52;4.90;;;3.50;;
6723;SDS011;3399;52.530;13.304;2023-05-10T06:25:17;3.63;;;2.77;;
6723;SDS011;3399;52.530;13.304;2023-05-10T06:27:43;7.47;;;3.70;;
6723;SDS011;3399;52.530;13.304;2023-05-10T06:30:09;5.33;;;2.73;;
6723;SDS011;3399;52.530;13.304;2023-05-10T06:32:36;3.47;;;2.83;;
6723;SDS011;3399;52.530;13.304;2023-05-10T06:35:01;4.27;;;3.13;;
6723;SDS011;3399;52.530;13.304;2023-05-10T06:37:27;3.10;;;2.80;;
6723;SDS011;3399;52.530;13.304;2023-05-10T06:39:53;3.63;;;2.90;;
6723;SDS011;3399;52.530;13.304;2023-05-10T06:42:18;4.23;;;3.13;;
6723;SDS011;3399;52.530;13.304;2023-05-10T06:44:44;3.87;;;2.87;;
6723;SDS011;3399;52.530;13.304;2023-05-10T06:47:09;3.37;;;3.07;;
6723;SDS011;3399;52.530;13.304;2023-05-10T06:49:35;5.47;;;3.17;;
6723;SDS011;3399;52.530;13.304;2023-05-10T06:52:00;2.47;;;2.27;;
6723;SDS011;3399;52.530;13.304;2023-05-10T06:54:26;5.27;;;3.07;;
6723;SDS011;3399;52.530;13.304;2023-05-10T06:56:51;3.60;;;2.50;;
6723;SDS011;3399;52.530;13.304;2023-05-10T06:59:17;4.47;;;2.50;;
6723;SDS011;3399;52.530;13.304;2023-05-10T07:01:44;2.67;;;2.47;;
6723;SDS011;3399;52.530;13.304;2023-05-10T07:04:09;4.03;;;3.00;;
6723;SDS011;3399;52.530;13.304;2023-05-10T07:06:35;2.93;;;2.37;;
6723;SDS011;3399;52.530;13.304;2023-05-10T07:09:00;2.57;;;2.33;;
6723;SDS011;3399;52.530;13.304;2023-05-10T07:11:26;4.33;;;2.07;;
6723;SDS011;3399;52.530;13.304;2023-05-10T07:13:52;4.63;;;2.70;;
6723;SDS011;3399;52.530;13.304;2023-05-10T07:16:17;3.10;;;2.90;;
6723;SDS011;3399;52.530;13.304;2023-05-10T07:18:43;2.83;;;2.50;;
6723;SDS011;3399;52.530;13.304;2023-05-10T07:21:08;3.33;;;2.80;;
6723;SDS011;3399;52.530;13.304;2023-05-10T07:23:34;3.57;;;3.27;;
6723;SDS011;3399;52.530;13.304;2023-05-10T07:25:59;2.70;;;2.23;;
6723;SDS011;3399;52.530;13.304;2023-05-10T07:28:25;2.83;;;2.63;;
6723;SDS011;3399;52.530;13.304;2023-05-10T07:30:50;2.70;;;2.43;;
6723;SDS011;3399;52.530;13.304;2023-05-10T07:33:16;3.03;;;2.63;;
6723;SDS011;3399;52.530;13.304;2023-05-10T07:35:42;4.80;;;2.47;;
6723;SDS011;3399;52.530;13.304;2023-05-10T07:38:08;10.40;;;3.17;;
6723;SDS011;3399;52.530;13.304;2023-05-10T07:40:33;4.23;;;2.80;;
6723;SDS011;3399;52.530;13.304;2023-05-10T07:42:59;2.50;;;2.30;;
6723;SDS011;3399;52.530;13.304;2023-05-10T07:45:26;6.30;;;2.60;;
6723;SDS011;3399;52.530;13.304;2023-05-10T07:47:52;2.70;;;2.50;;
6723;SDS011;3399;52.530;13.304;2023-05-10T07:50:18;2.73;;;2.53;;
6723;SDS011;3399;52.530;13.304;2023-05-10T07:52:46;3.40;;;3.10;;
6723;SDS011;3399;52.530;13.304;2023-05-10T07:55:12;3.57;;;2.40;;
6723;SDS011;3399;52.530;13.304;2023-05-10T07:57:37;3.20;;;2.20;;
6723;SDS011;3399;52.530;13.304;2023-05-10T08:00:03;2.57;;;2.33;;
6723;SDS011;3399;52.530;13.304;2023-05-10T08:02:29;4.27;;;2.63;;
6723;SDS011;3399;52.530;13.304;2023-05-10T08:04:55;2.50;;;2.30;;
6723;SDS011;3399;52.530;13.304;2023-05-10T08:07:20;3.87;;;2.37;;
6723;SDS011;3399;52.530;13.304;2023-05-10T08:09:46;4.60;;;3.13;;
6723;SDS011;3399;52.530;13.304;2023-05-10T08:12:11;2.30;;;2.13;;
6723;SDS011;3399;52.530;13.304;2023-05-10T08:14:37;2.70;;;2.50;;
6723;SDS011;3399;52.530;13.304;2023-05-10T08:17:03;5.80;;;2.60;;
6723;SDS011;3399;52.530;13.304;2023-05-10T08:19:29;2.20;;;2.00;;
6723;SDS011;3399;52.530;13.304;2023-05-10T08:21:54;3.63;;;2.67;;
6723;SDS011;3399;52.530;13.304;2023-05-10T08:24:20;2.83;;;2.30;;
6723;SDS011;3399;52.530;13.304;2023-05-10T08:26:46;3.47;;;2.67;;
6723;SDS011;3399;52.530;13.304;2023-05-10T08:29:12;2.57;;;2.33;;
6723;SDS011;3399;52.530;13.304;2023-05-10T08:31:38;5.10;;;2.43;;
6723;SDS011;3399;52.530;13.304;2023-05-10T08:34:04;3.47;;;2.47;;
6723;SDS011;3399;52.530;13.304;2023-05-10T08:36:29;4.40;;;2.63;;
6723;SDS011;3399;52.530;13.304;2023-05-10T08:38:55;3.63;;;2.30;;
6723;SDS011;3399;52.530;13.304;2023-05-10T08:41:20;3.40;;;2.83;;
6723;SDS011;3399;52.530;13.304;2023-05-10T08:43:49;2.37;;;2.17;;
6723;SDS011;3399;52.530;13.304;2023-05-10T08:46:15;3.80;;;2.73;;
6723;SDS011;3399;52.530;13.304;2023-05-10T08:48:43;2.33;;;2.13;;
6723;SDS011;3399;52.530;13.304;2023-05-10T08:51:09;3.80;;;2.60;;
6723;SDS011;3399;52.530;13.304;2023-05-10T08:53:39;5.07;;;2.60;;
6723;SDS011;3399;52.530;13.304;2023-05-10T08:56:05;2.57;;;2.37;;
6723;SDS011;3399;52.530;13.304;2023-05-10T08:58:31;2.50;;;2.30;;
6723;SDS011;3399;52.530;13.304;2023-05-10T09:00:57;3.67;;;2.73;;
6723;SDS011;3399;52.530;13.304;2023-05-10T09:03:23;4.13;;;2.50;;
6723;SDS011;3399;52.530;13.304;2023-05-10T09:05:49;4.37;;;2.93;;
6723;SDS011;3399;52.530;13.304;2023-05-10T09:08:15;3.37;;;2.50;;
6723;SDS011;3399;52.530;13.304;2023-05-10T09:10:43;4.17;;;3.17;;
6723;SDS011;3399;52.530;13.304;2023-05-10T09:13:12;3.23;;;2.80;;
6723;SDS011;3399;52.530;13.304;2023-05-10T09:15:38;3.37;;;2.90;;
6723;SDS011;3399;52.530;13.304;2023-05-10T09:18:04;5.33;;;2.70;;
6723;SDS011;3399;52.530;13.304;2023-05-10T09:20:30;3.17;;;2.80;;
6723;SDS011;3399;52.530;13.304;2023-05-10T09:22:56;2.63;;;2.20;;
6723;SDS011;3399;52.530;13.304;2023-05-10T09:25:21;3.43;;;2.57;;
6723;SDS011;3399;52.530;13.304;2023-05-10T09:27:47;3.77;;;3.40;;
6723;SDS011;3399;52.530;13.304;2023-05-10T09:30:23;2.60;;;2.40;;
6723;SDS011;3399;52.530;13.304;2023-05-10T09:32:49;3.03;;;2.83;;
6723;SDS011;3399;52.530;13.304;2023-05-10T09:35:16;3.30;;;2.90;;
6723;SDS011;3399;52.530;13.304;2023-05-10T09:37:44;8.10;;;2.60;;
6723;SDS011;3399;52.530;13.304;2023-05-10T09:40:18;3.03;;;2.83;;
6723;SDS011;3399;52.530;13.304;2023-05-10T09:45:25;4.03;;;2.60;;
6723;SDS011;3399;52.530;13.304;2023-05-10T09:47:52;2.87;;;2.53;;
6723;SDS011;3399;52.530;13.304;2023-05-10T09:50:18;4.63;;;2.70;;
6723;SDS011;3399;52.530;13.304;2023-05-10T09:52:46;2.73;;;2.50;;
6723;SDS011;3399;52.530;13.304;2023-05-10T09:55:16;5.57;;;3.17;;
6723;SDS011;3399;52.530;13.304;2023-05-10T09:57:43;2.57;;;2.23;;
6723;SDS011;3399;52.530;13.304;2023-05-10T10:00:09;2.40;;;2.20;;
6723;SDS011;3399;52.530;13.304;2023-05-10T10:02:35;3.83;;;2.00;;
6723;SDS011;3399;52.530;13.304;2023-05-10T10:05:01;3.57;;;2.17;;
6723;SDS011;3399;52.530;13.304;2023-05-10T10:07:28;5.63;;;3.20;;
6723;SDS011;3399;52.530;13.304;2023-05-10T10:09:54;2.77;;;2.57;;
6723;SDS011;3399;52.530;13.304;2023-05-10T10:12:19;4.30;;;2.50;;
6723;SDS011;3399;52.530;13.304;2023-05-10T10:14:48;2.67;;;2.37;;
6723;SDS011;3399;52.530;13.304;2023-05-10T10:17:15;3.67;;;2.33;;
6723;SDS011;3399;52.530;13.304;2023-05-10T10:19:41;2.40;;;2.20;;
6723;SDS011;3399;52.530;13.304;2023-05-10T10:22:07;5.00;;;2.47;;
6723;SDS011;3399;52.530;13.304;2023-05-10T10:24:32;3.20;;;2.50;;
6723;SDS011;3399;52.530;13.304;2023-05-10T10:27:08;3.60;;;2.83;;
6723;SDS011;3399;52.530;13.304;2023-05-10T10:35:21;3.17;;;2.70;;
6723;SDS011;3399;52.530;13.304;2023-05-10T10:37:47;4.20;;;2.20;;
6723;SDS011;3399;52.530;13.304;2023-05-10T10:40:32;3.17;;;2.70;;
6723;SDS011;3399;52.530;13.304;2023-05-10T10:42:59;3.87;;;3.47;;
6723;SDS011;3399;52.530;13.304;2023-05-10T10:48:34;3.70;;;3.40;;
6723;SDS011;3399;52.530;13.304;2023-05-10T10:51:00;6.40;;;4.60;;
6723;SDS011;3399;52.530;13.304;2023-05-10T10:53:27;3.20;;;2.67;;
6723;SDS011;3399;52.530;13.304;2023-05-10T10:56:02;2.80;;;2.60;;
6723;SDS011;3399;52.530;13.304;2023-05-10T10:58:33;3.17;;;2.67;;
6723;SDS011;3399;52.530;13.304;2023-05-10T11:01:17;6.33;;;2.73;;
6723;SDS011;3399;52.530;13.304;2023-05-10T11:06:30;2.83;;;2.50;;
6723;SDS011;3399;52.530;13.304;2023-05-10T11:08:57;2.83;;;2.30;;
6723;SDS011;3399;52.530;13.304;2023-05-10T11:11:23;5.33;;;2.20;;
6723;SDS011;3399;52.530;13.304;2023-05-10T11:13:48;3.67;;;2.67;;
6723;SDS011;3399;52.530;13.304;2023-05-10T11:16:18;4.70;;;2.27;;
6723;SDS011;3399;52.530;13.304;2023-05-10T11:18:53;4.40;;;2.57;;
6723;SDS011;3399;52.530;13.304;2023-05-10T11:21:29;4.60;;;2.57;;
6723;SDS011;3399;52.530;13.304;2023-05-10T11:23:56;2.13;;;2.03;;
6723;SDS011;3399;52.530;13.304;2023-05-10T11:26:23;2.60;;;2.40;;
6723;SDS011;3399;52.530;13.304;2023-05-10T11:28:51;3.23;;;2.30;;
6723;SDS011;3399;52.530;13.304;2023-05-10T11:31:20;2.97;;;2.70;;
6723;SDS011;3399;52.530;13.304;2023-05-10T11:33:47;3.83;;;2.73;;
6723;SDS011;3399;52.530;13.304;2023-05-10T11:36:15;3.03;;;2.10;;
6723;SDS011;3399;52.530;13.304;2023-05-10T11:38:45;3.87;;;2.53;;
6723;SDS011;3399;52.530;13.304;2023-05-10T11:41:11;3.80;;;2.27;;
6723;SDS011;3399;52.530;13.304;2023-05-10T11:43:38;4.43;;;1.93;;
6723;SDS011;3399;52.530;13.304;2023-05-10T11:46:08;3.00;;;2.60;;
6723;SDS011;3399;52.530;13.304;2023-05-10T11:48:35;2.60;;;2.40;;
6723;SDS011;3399;52.530;13.304;2023-05-10T11:51:01;4.28;;;2.83;;
6723;SDS011;3399;52.530;13.304;2023-05-10T11:53:28;3.27;;;2.43;;
6723;SDS011;3399;52.530;13.304;2023-05-10T11:56:02;5.03;;;3.57;;
6723;SDS011;3399;52.530;13.304;2023-05-10T11:58:29;3.30;;;2.90;;
6723;SDS011;3399;52.530;13.304;2023-05-10T12:00:55;4.03;;;3.47;;
6723;SDS011;3399;52.530;13.304;2023-05-10T12:03:20;6.38;;;2.97;;
6723;SDS011;3399;52.530;13.304;2023-05-10T12:05:46;3.08;;;2.70;;
6723;SDS011;3399;52.530;13.304;2023-05-10T12:08:12;6.00;;;2.42;;
6723;SDS011;3399;52.530;13.304;2023-05-10T12:10:39;3.92;;;2.03;;
6723;SDS011;3399;52.530;13.304;2023-05-10T12:13:04;3.17;;;2.47;;
6723;SDS011;3399;52.530;13.304;2023-05-10T12:15:30;7.07;;;2.58;;
6723;SDS011;3399;52.530;13.304;2023-05-10T12:17:55;4.65;;;3.35;;
6723;SDS011;3399;52.530;13.304;2023-05-10T12:20:22;2.65;;;2.40;;
6723;SDS011;3399;52.530;13.304;2023-05-10T12:22:50;4.55;;;3.00;;
6723;SDS011;3399;52.530;13.304;2023-05-10T12:25:20;4.97;;;2.50;;
6723;SDS011;3399;52.530;13.304;2023-05-10T12:27:48;2.67;;;2.25;;
6723;SDS011;3399;52.530;13.304;2023-05-10T12:30:18;3.72;;;2.70;;
6723;SDS011;3399;52.530;13.304;2023-05-10T12:32:45;2.65;;;2.42;;
6723;SDS011;3399;52.530;13.304;2023-05-10T12:35:11;4.03;;;2.95;;
6723;SDS011;3399;52.530;13.304;2023-05-10T12:37:36;5.38;;;2.97;;
6723;SDS011;3399;52.530;13.304;2023-05-10T12:40:07;2.85;;;2.65;;
6723;SDS011;3399;52.530;13.304;2023-05-10T12:42:34;2.38;;;2.17;;
6723;SDS011;3399;52.530;13.304;2023-05-10T12:45:03;3.03;;;2.53;;
6723;SDS011;3399;52.530;13.304;2023-05-10T12:47:30;4.75;;;2.63;;
6723;SDS011;3399;52.530;13.304;2023-05-10T12:49:56;4.95;;;3.10;;
6723;SDS011;3399;52.530;13.304;2023-05-10T12:52:22;4.07;;;2.90;;
6723;SDS011;3399;52.530;13.304;2023-05-10T12:54:48;5.72;;;2.90;;
6723;SDS011;3399;52.530;13.304;2023-05-10T12:57:14;4.85;;;2.58;;
6723;SDS011;3399;52.530;13.304;2023-05-10T12:59:40;5.40;;;2.10;;
6723;SDS011;3399;52.530;13.304;2023-05-10T13:02:05;3.13;;;2.83;;
6723;SDS011;3399;52.530;13.304;2023-05-10T13:04:31;3.10;;;2.78;;
6723;SDS011;3399;52.530;13.304;2023-05-10T13:06:57;4.20;;;2.47;;
6723;SDS011;3399;52.530;13.304;2023-05-10T13:09:26;2.58;;;1.92;;
6723;SDS011;3399;52.530;13.304;2023-05-10T13:11:54;2.50;;;2.30;;
6723;SDS011;3399;52.530;13.304;2023-05-10T13:14:20;4.20;;;2.33;;
6723;SDS011;3399;52.530;13.304;2023-05-10T13:16:46;3.63;;;1.95;;
6723;SDS011;3399;52.530;13.304;2023-05-10T13:19:12;3.47;;;2.63;;
6723;SDS011;3399;52.530;13.304;2023-05-10T13:21:38;2.63;;;2.42;;
6723;SDS011;3399;52.530;13.304;2023-05-10T13:24:05;3.20;;;2.65;;
6723;SDS011;3399;52.530;13.304;2023-05-10T13:26:31;3.95;;;2.38;;
6723;SDS011;3399;52.530;13.304;2023-05-10T13:28:57;2.42;;;2.22;;
6723;SDS011;3399;52.530;13.304;2023-05-10T13:31:22;5.05;;;3.00;;
6723;SDS011;3399;52.530;13.304;2023-05-10T13:33:48;2.20;;;2.10;;
6723;SDS011;3399;52.530;13.304;2023-05-10T13:36:14;2.72;;;2.53;;
6723;SDS011;3399;52.530;13.304;2023-05-10T13:38:39;2.58;;;2.28;;
6723;SDS011;3399;52.530;13.304;2023-05-10T13:41:05;2.35;;;2.15;;
6723;SDS011;3399;52.530;13.304;2023-05-10T13:43:30;3.83;;;2.00;;
6723;SDS011;3399;52.530;13.304;2023-05-10T13:45:56;2.30;;;2.15;;
6723;SDS011;3399;52.530;13.304;2023-05-10T13:48:21;3.40;;;2.22;;
6723;SDS011;3399;52.530;13.304;2023-05-10T13:50:47;4.57;;;2.10;;
6723;SDS011;3399;52.530;13.304;2023-05-10T13:53:12;2.55;;;2.35;;
6723;SDS011;3399;52.530;13.304;2023-05-10T13:55:39;2.63;;;2.42;;
6723;SDS011;3399;52.530;13.304;2023-05-10T13:58:04;2.95;;;2.33;;
6723;SDS011;3399;52.530;13.304;2023-05-10T14:00:30;3.53;;;2.60;;
6723;SDS011;3399;52.530;13.304;2023-05-10T14:02:55;2.00;;;1.80;;
6723;SDS011;3399;52.530;13.304;2023-05-10T14:05:21;2.15;;;2.03;;
6723;SDS011;3399;52.530;13.304;2023-05-10T14:07:47;3.42;;;2.45;;
6723;SDS011;3399;52.530;13.304;2023-05-10T14:10:13;2.10;;;1.95;;
6723;SDS011;3399;52.530;13.304;2023-05-10T14:12:41;3.70;;;1.90;;
6723;SDS011;3399;52.530;13.304;2023-05-10T14:15:07;3.80;;;2.03;;
6723;SDS011;3399;52.530;13.304;2023-05-10T14:17:35;3.35;;;2.30;;
6723;SDS011;3399;52.530;13.304;2023-05-10T14:20:00;2.70;;;2.50;;
6723;SDS011;3399;52.530;13.304;2023-05-10T14:22:26;4.85;;;2.45;;
6723;SDS011;3399;52.530;13.304;2023-05-10T14:24:52;2.50;;;2.30;;
6723;SDS011;3399;52.530;13.304;2023-05-10T14:27:17;2.33;;;2.13;;
6723;SDS011;3399;52.530;13.304;2023-05-10T14:29:43;4.65;;;2.28;;
6723;SDS011;3399;52.530;13.304;2023-05-10T14:32:10;2.03;;;1.85;;
6723;SDS011;3399;52.530;13.304;2023-05-10T14:34:35;3.38;;;2.30;;
6723;SDS011;3399;52.530;13.304;2023-05-10T14:37:01;2.33;;;1.98;;
6723;SDS011;3399;52.530;13.304;2023-05-10T14:39:26;3.75;;;2.20;;
6723;SDS011;3399;52.530;13.304;2023-05-10T14:41:54;2.20;;;2.10;;
6723;SDS011;3399;52.530;13.304;2023-05-10T14:44:20;2.70;;;2.50;;
6723;SDS011;3399;52.530;13.304;2023-05-10T14:46:46;2.63;;;2.08;;
6723;SDS011;3399;52.530;13.304;2023-05-10T14:49:13;2.40;;;2.03;;
6723;SDS011;3399;52.530;13.304;2023-05-10T14:51:38;3.00;;;2.22;;
6723;SDS011;3399;52.530;13.304;2023-05-10T14:54:04;3.60;;;2.65;;
6723;SDS011;3399;52.530;13.304;2023-05-10T14:56:30;5.00;;;1.90;;
6723;SDS011;3399;52.530;13.304;2023-05-10T14:58:56;2.17;;;1.98;;
6723;SDS011;3399;52.530;13.304;2023-05-10T15:01:22;4.50;;;2.22;;
6723;SDS011;3399;52.530;13.304;2023-05-10T15:03:47;2.75;;;2.30;;
6723;SDS011;3399;52.530;13.304;2023-05-10T15:06:14;2.17;;;1.98;;
6723;SDS011;3399;52.530;13.304;2023-05-10T15:08:40;2.10;;;2.00;;
6723;SDS011;3399;52.530;13.304;2023-05-10T15:11:06;2.45;;;2.25;;
6723;SDS011;3399;52.530;13.304;2023-05-10T15:13:31;2.97;;;2.20;;
6723;SDS011;3399;52.530;13.304;2023-05-10T15:15:57;4.80;;;2.67;;
6723;SDS011;3399;52.530;13.304;2023-05-10T15:18:26;2.72;;;2.47;;
6723;SDS011;3399;52.530;13.304;2023-05-10T15:20:52;2.92;;;2.72;;
6723;SDS011;3399;52.530;13.304;2023-05-10T15:23:17;3.97;;;2.40;;
6723;SDS011;3399;52.530;13.304;2023-05-10T15:25:43;2.70;;;2.50;;
6723;SDS011;3399;52.530;13.304;2023-05-10T15:28:08;2.80;;;2.60;;